sensor_id;sensor_type;location;lat;lon;timestamp;temperature;humidity
71142;DHT22;58808;59.366;17.970;2022-08-21T00:00:34;17.80;99.90
71142;DHT22;58808;59.366;17.970;2022-08-21T00:03:04;17.80;99.90
71142;DHT22;58808;59.366;17.970;2022-08-21T00:05:32;17.80;99.90
71142;DHT22;58808;59.366;17.970;2022-08-21T00:07:58;17.80;99.90
71142;DHT22;58808;59.366;17.970;2022-08-21T00:10:24;17.80;99.90
71142;DHT22;58808;59.366;17.970;2022-08-21T00:12:51;17.80;99.90
71142;DHT22;58808;59.366;17.970;2022-08-21T00:15:21;17.90;99.90
71142;DHT22;58808;59.366;17.970;2022-08-21T00:17:47;17.90;99.90
71142;DHT22;58808;59.366;17.970;2022-08-21T00:20:14;17.80;99.90
71142;DHT22;58808;59.366;17.970;2022-08-21T00:22:40;17.70;99.90
71142;DHT22;58808;59.366;17.970;2022-08-21T00:25:07;17.70;99.90
71142;DHT22;58808;59.366;17.970;2022-08-21T00:27:33;17.70;99.90
71142;DHT22;58808;59.366;17.970;2022-08-21T00:29:59;17.60;99.90
71142;DHT22;58808;59.366;17.970;2022-08-21T00:32:26;17.70;99.90
71142;DHT22;58808;59.366;17.970;2022-08-21T00:34:53;17.70;99.90
71142;DHT22;58808;59.366;17.970;2022-08-21T00:37:19;17.70;99.90
71142;DHT22;58808;59.366;17.970;2022-08-21T00:39:50;17.70;99.90
71142;DHT22;58808;59.366;17.970;2022-08-21T00:42:16;17.70;99.90
71142;DHT22;58808;59.366;17.970;2022-08-21T00:44:43;17.60;99.90
71142;DHT22;58808;59.366;17.970;2022-08-21T00:47:10;17.60;99.90
71142;DHT22;58808;59.366;17.970;2022-08-21T00:49:37;17.50;99.90
71142;DHT22;58808;59.366;17.970;2022-08-21T00:52:03;17.50;99.90
71142;DHT22;58808;59.366;17.970;2022-08-21T00:54:31;17.50;99.90
71142;DHT22;58808;59.366;17.970;2022-08-21T00:57:01;17.40;99.90
71142;DHT22;58808;59.366;17.970;2022-08-21T00:59:28;17.50;99.90
71142;DHT22;58808;59.366;17.970;2022-08-21T01:01:55;17.50;99.90
71142;DHT22;58808;59.366;17.970;2022-08-21T01:04:21;17.50;99.90
71142;DHT22;58808;59.366;17.970;2022-08-21T01:06:50;17.50;99.90
71142;DHT22;58808;59.366;17.970;2022-08-21T01:09:16;17.50;99.90
71142;DHT22;58808;59.366;17.970;2022-08-21T01:11:43;17.50;99.90
71142;DHT22;58808;59.366;17.970;2022-08-21T01:14:10;17.40;99.90
71142;DHT22;58808;59.366;17.970;2022-08-21T01:16:38;17.50;99.90
71142;DHT22;58808;59.366;17.970;2022-08-21T01:19:04;17.50;99.90
71142;DHT22;58808;59.366;17.970;2022-08-21T01:21:30;17.50;99.90
71142;DHT22;58808;59.366;17.970;2022-08-21T01:23:57;17.60;99.90
71142;DHT22;58808;59.366;17.970;2022-08-21T01:26:26;17.50;99.90
71142;DHT22;58808;59.366;17.970;2022-08-21T01:28:59;17.60;99.90
71142;DHT22;58808;59.366;17.970;2022-08-21T01:31:26;17.50;99.90
71142;DHT22;58808;59.366;17.970;2022-08-21T01:33:53;17.40;99.90
71142;DHT22;58808;59.366;17.970;2022-08-21T01:36:20;17.40;99.90
71142;DHT22;58808;59.366;17.970;2022-08-21T01:38:45;17.40;99.90
71142;DHT22;58808;59.366;17.970;2022-08-21T01:41:12;17.40;99.90
71142;DHT22;58808;59.366;17.970;2022-08-21T01:43:38;17.40;99.90
71142;DHT22;58808;59.366;17.970;2022-08-21T01:46:04;17.40;99.90
71142;DHT22;58808;59.366;17.970;2022-08-21T01:48:29;17.40;99.90
71142;DHT22;58808;59.366;17.970;2022-08-21T01:50:56;17.50;99.90
71142;DHT22;58808;59.366;17.970;2022-08-21T01:53:21;17.40;99.90
71142;DHT22;58808;59.366;17.970;2022-08-21T01:55:47;17.40;99.90
71142;DHT22;58808;59.366;17.970;2022-08-21T01:58:13;17.40;99.90
71142;DHT22;58808;59.366;17.970;2022-08-21T02:00:38;17.40;99.90
71142;DHT22;58808;59.366;17.970;2022-08-21T02:03:04;17.40;99.90
71142;DHT22;58808;59.366;17.970;2022-08-21T02:05:29;17.40;99.90
71142;DHT22;58808;59.366;17.970;2022-08-21T02:07:56;17.40;99.90
71142;DHT22;58808;59.366;17.970;2022-08-21T02:10:24;17.40;99.90
71142;DHT22;58808;59.366;17.970;2022-08-21T02:12:52;17.40;99.90
71142;DHT22;58808;59.366;17.970;2022-08-21T02:15:18;17.40;99.90
71142;DHT22;58808;59.366;17.970;2022-08-21T02:17:51;17.30;99.90
71142;DHT22;58808;59.366;17.970;2022-08-21T02:20:21;17.30;99.90
71142;DHT22;58808;59.366;17.970;2022-08-21T02:22:47;17.40;99.90
71142;DHT22;58808;59.366;17.970;2022-08-21T02:25:13;17.30;99.90
71142;DHT22;58808;59.366;17.970;2022-08-21T02:27:44;17.30;99.90
71142;DHT22;58808;59.366;17.970;2022-08-21T02:30:41;17.30;99.90
71142;DHT22;58808;59.366;17.970;2022-08-21T02:33:08;17.40;99.90
71142;DHT22;58808;59.366;17.970;2022-08-21T02:35:35;17.50;99.90
71142;DHT22;58808;59.366;17.970;2022-08-21T02:38:05;17.40;99.90
71142;DHT22;58808;59.366;17.970;2022-08-21T02:40:34;17.30;99.90
71142;DHT22;58808;59.366;17.970;2022-08-21T02:43:00;17.30;99.90
71142;DHT22;58808;59.366;17.970;2022-08-21T02:45:27;17.30;99.90
71142;DHT22;58808;59.366;17.970;2022-08-21T02:47:59;17.20;99.90
71142;DHT22;58808;59.366;17.970;2022-08-21T02:50:32;17.30;99.90
71142;DHT22;58808;59.366;17.970;2022-08-21T02:52:58;17.30;99.90
71142;DHT22;58808;59.366;17.970;2022-08-21T02:55:26;17.20;99.90
71142;DHT22;58808;59.366;17.970;2022-08-21T02:57:54;17.20;99.90
71142;DHT22;58808;59.366;17.970;2022-08-21T03:00:22;17.10;99.90
71142;DHT22;58808;59.366;17.970;2022-08-21T03:02:51;17.10;99.90
71142;DHT22;58808;59.366;17.970;2022-08-21T03:05:19;17.20;99.90
71142;DHT22;58808;59.366;17.970;2022-08-21T03:07:46;17.20;99.90
71142;DHT22;58808;59.366;17.970;2022-08-21T03:10:13;17.20;99.90
71142;DHT22;58808;59.366;17.970;2022-08-21T03:12:39;17.20;99.90
71142;DHT22;58808;59.366;17.970;2022-08-21T03:15:07;17.30;99.90
71142;DHT22;58808;59.366;17.970;2022-08-21T03:17:33;17.30;99.90
71142;DHT22;58808;59.366;17.970;2022-08-21T03:19:59;17.20;99.90
71142;DHT22;58808;59.366;17.970;2022-08-21T03:22:26;17.20;99.90
71142;DHT22;58808;59.366;17.970;2022-08-21T03:24:51;17.20;99.90
71142;DHT22;58808;59.366;17.970;2022-08-21T03:27:17;17.10;99.90
71142;DHT22;58808;59.366;17.970;2022-08-21T03:29:43;17.10;99.90
71142;DHT22;58808;59.366;17.970;2022-08-21T03:32:08;17.10;99.90
71142;DHT22;58808;59.366;17.970;2022-08-21T03:34:37;17.10;99.90
71142;DHT22;58808;59.366;17.970;2022-08-21T03:37:05;17.00;99.90
71142;DHT22;58808;59.366;17.970;2022-08-21T03:39:31;17.10;99.90
71142;DHT22;58808;59.366;17.970;2022-08-21T03:41:57;17.10;99.90
71142;DHT22;58808;59.366;17.970;2022-08-21T03:44:23;17.00;99.90
71142;DHT22;58808;59.366;17.970;2022-08-21T03:46:48;17.00;99.90
71142;DHT22;58808;59.366;17.970;2022-08-21T03:49:14;16.90;99.90
71142;DHT22;58808;59.366;17.970;2022-08-21T03:51:40;17.00;99.90
71142;DHT22;58808;59.366;17.970;2022-08-21T03:54:05;16.90;99.90
71142;DHT22;58808;59.366;17.970;2022-08-21T03:56:31;16.90;99.90
71142;DHT22;58808;59.366;17.970;2022-08-21T03:58:59;17.00;99.90
71142;DHT22;58808;59.366;17.970;2022-08-21T04:01:25;17.00;99.90
71142;DHT22;58808;59.366;17.970;2022-08-21T04:03:50;17.00;99.90
71142;DHT22;58808;59.366;17.970;2022-08-21T04:06:16;17.10;99.90
71142;DHT22;58808;59.366;17.970;2022-08-21T04:08:41;17.10;99.90
71142;DHT22;58808;59.366;17.970;2022-08-21T04:11:08;17.10;99.90
71142;DHT22;58808;59.366;17.970;2022-08-21T04:13:36;17.10;99.90
71142;DHT22;58808;59.366;17.970;2022-08-21T04:16:02;17.10;99.90
71142;DHT22;58808;59.366;17.970;2022-08-21T04:18:28;17.10;99.90
71142;DHT22;58808;59.366;17.970;2022-08-21T04:20:56;17.20;99.90
71142;DHT22;58808;59.366;17.970;2022-08-21T04:23:23;17.20;99.90
71142;DHT22;58808;59.366;17.970;2022-08-21T04:25:48;17.10;99.90
71142;DHT22;58808;59.366;17.970;2022-08-21T04:28:14;17.10;99.90
71142;DHT22;58808;59.366;17.970;2022-08-21T04:30:39;17.20;99.90
71142;DHT22;58808;59.366;17.970;2022-08-21T04:33:05;17.30;99.90
71142;DHT22;58808;59.366;17.970;2022-08-21T04:35:31;17.30;99.90
71142;DHT22;58808;59.366;17.970;2022-08-21T04:37:57;17.20;99.90
71142;DHT22;58808;59.366;17.970;2022-08-21T04:40:25;17.30;99.90
71142;DHT22;58808;59.366;17.970;2022-08-21T04:42:55;17.30;99.90
71142;DHT22;58808;59.366;17.970;2022-08-21T04:45:22;17.30;99.90
71142;DHT22;58808;59.366;17.970;2022-08-21T04:47:50;17.20;99.90
71142;DHT22;58808;59.366;17.970;2022-08-21T04:50:16;17.20;99.90
71142;DHT22;58808;59.366;17.970;2022-08-21T04:52:41;17.20;99.90
71142;DHT22;58808;59.366;17.970;2022-08-21T04:55:08;17.20;99.90
71142;DHT22;58808;59.366;17.970;2022-08-21T04:57:34;17.20;99.90
71142;DHT22;58808;59.366;17.970;2022-08-21T05:00:01;17.20;99.90
71142;DHT22;58808;59.366;17.970;2022-08-21T05:02:28;17.20;99.90
71142;DHT22;58808;59.366;17.970;2022-08-21T05:04:55;17.20;99.90
71142;DHT22;58808;59.366;17.970;2022-08-21T05:07:23;17.20;99.90
71142;DHT22;58808;59.366;17.970;2022-08-21T05:09:50;17.30;99.90
71142;DHT22;58808;59.366;17.970;2022-08-21T05:12:16;17.30;99.90
71142;DHT22;58808;59.366;17.970;2022-08-21T05:14:42;17.20;99.90
71142;DHT22;58808;59.366;17.970;2022-08-21T05:17:08;17.20;99.90
71142;DHT22;58808;59.366;17.970;2022-08-21T05:19:34;17.20;99.90
71142;DHT22;58808;59.366;17.970;2022-08-21T05:22:00;17.20;99.90
71142;DHT22;58808;59.366;17.970;2022-08-21T05:24:26;17.20;99.90
71142;DHT22;58808;59.366;17.970;2022-08-21T05:26:52;17.20;99.90
71142;DHT22;58808;59.366;17.970;2022-08-21T05:29:18;17.10;99.90
71142;DHT22;58808;59.366;17.970;2022-08-21T05:31:44;17.10;99.90
71142;DHT22;58808;59.366;17.970;2022-08-21T05:34:11;17.10;99.90
71142;DHT22;58808;59.366;17.970;2022-08-21T05:36:37;17.20;99.90
71142;DHT22;58808;59.366;17.970;2022-08-21T05:39:03;17.20;99.90
71142;DHT22;58808;59.366;17.970;2022-08-21T05:41:28;17.20;99.90
71142;DHT22;58808;59.366;17.970;2022-08-21T05:43:54;17.20;99.90
71142;DHT22;58808;59.366;17.970;2022-08-21T05:46:19;17.10;99.90
71142;DHT22;58808;59.366;17.970;2022-08-21T05:48:45;17.10;99.90
71142;DHT22;58808;59.366;17.970;2022-08-21T05:51:14;17.20;99.90
71142;DHT22;58808;59.366;17.970;2022-08-21T05:53:40;17.20;99.90
71142;DHT22;58808;59.366;17.970;2022-08-21T05:56:08;17.20;99.90
71142;DHT22;58808;59.366;17.970;2022-08-21T05:58:33;17.20;99.90
71142;DHT22;58808;59.366;17.970;2022-08-21T06:01:00;17.20;99.90
71142;DHT22;58808;59.366;17.970;2022-08-21T06:03:31;17.20;99.90
71142;DHT22;58808;59.366;17.970;2022-08-21T06:05:56;17.30;99.90
71142;DHT22;58808;59.366;17.970;2022-08-21T06:08:23;17.30;99.90
71142;DHT22;58808;59.366;17.970;2022-08-21T06:10:52;17.20;99.90
71142;DHT22;58808;59.366;17.970;2022-08-21T06:13:19;17.30;99.90
71142;DHT22;58808;59.366;17.970;2022-08-21T06:15:45;17.20;99.90
71142;DHT22;58808;59.366;17.970;2022-08-21T06:18:12;17.20;99.90
71142;DHT22;58808;59.366;17.970;2022-08-21T06:20:37;17.30;99.90
71142;DHT22;58808;59.366;17.970;2022-08-21T06:23:04;17.40;99.90
71142;DHT22;58808;59.366;17.970;2022-08-21T06:25:30;17.50;99.90
71142;DHT22;58808;59.366;17.970;2022-08-21T06:28:08;17.50;99.90
71142;DHT22;58808;59.366;17.970;2022-08-21T06:30:35;17.40;99.90
71142;DHT22;58808;59.366;17.970;2022-08-21T06:33:01;17.40;99.90
71142;DHT22;58808;59.366;17.970;2022-08-21T06:35:28;17.40;99.90
71142;DHT22;58808;59.366;17.970;2022-08-21T06:37:55;17.30;99.90
71142;DHT22;58808;59.366;17.970;2022-08-21T06:40:21;17.30;99.90
71142;DHT22;58808;59.366;17.970;2022-08-21T06:42:46;17.40;99.90
71142;DHT22;58808;59.366;17.970;2022-08-21T06:45:12;17.50;99.90
71142;DHT22;58808;59.366;17.970;2022-08-21T06:47:38;17.60;99.90
71142;DHT22;58808;59.366;17.970;2022-08-21T06:50:04;17.50;99.90
71142;DHT22;58808;59.366;17.970;2022-08-21T06:52:33;17.70;99.90
71142;DHT22;58808;59.366;17.970;2022-08-21T06:54:59;17.70;99.90
71142;DHT22;58808;59.366;17.970;2022-08-21T06:57:25;17.80;99.90
71142;DHT22;58808;59.366;17.970;2022-08-21T06:59:51;17.90;99.90
71142;DHT22;58808;59.366;17.970;2022-08-21T07:02:16;17.80;99.90
71142;DHT22;58808;59.366;17.970;2022-08-21T07:04:42;18.00;99.90
71142;DHT22;58808;59.366;17.970;2022-08-21T07:07:08;17.90;99.90
71142;DHT22;58808;59.366;17.970;2022-08-21T07:09:33;17.80;99.90
71142;DHT22;58808;59.366;17.970;2022-08-21T07:12:02;17.70;99.90
71142;DHT22;58808;59.366;17.970;2022-08-21T07:14:28;17.70;99.90
71142;DHT22;58808;59.366;17.970;2022-08-21T07:16:54;17.80;99.90
71142;DHT22;58808;59.366;17.970;2022-08-21T07:19:20;17.90;99.90
71142;DHT22;58808;59.366;17.970;2022-08-21T07:21:46;17.90;99.90
71142;DHT22;58808;59.366;17.970;2022-08-21T07:24:14;18.00;99.90
71142;DHT22;58808;59.366;17.970;2022-08-21T07:26:40;17.90;99.90
71142;DHT22;58808;59.366;17.970;2022-08-21T07:29:06;17.90;99.90
71142;DHT22;58808;59.366;17.970;2022-08-21T07:31:32;18.00;99.90
71142;DHT22;58808;59.366;17.970;2022-08-21T07:33:58;18.10;99.90
71142;DHT22;58808;59.366;17.970;2022-08-21T07:36:24;18.20;99.90
71142;DHT22;58808;59.366;17.970;2022-08-21T07:38:49;18.20;99.90
71142;DHT22;58808;59.366;17.970;2022-08-21T07:41:26;18.30;99.90
71142;DHT22;58808;59.366;17.970;2022-08-21T07:43:55;18.40;99.90
71142;DHT22;58808;59.366;17.970;2022-08-21T07:46:22;18.40;99.90
71142;DHT22;58808;59.366;17.970;2022-08-21T07:48:48;18.40;99.90
71142;DHT22;58808;59.366;17.970;2022-08-21T07:51:16;18.30;99.90
71142;DHT22;58808;59.366;17.970;2022-08-21T07:53:42;18.50;99.90
71142;DHT22;58808;59.366;17.970;2022-08-21T07:56:08;18.50;99.90
71142;DHT22;58808;59.366;17.970;2022-08-21T07:58:37;18.50;99.90
71142;DHT22;58808;59.366;17.970;2022-08-21T08:01:03;18.60;99.90
71142;DHT22;58808;59.366;17.970;2022-08-21T08:03:29;18.60;99.90
71142;DHT22;58808;59.366;17.970;2022-08-21T08:05:56;18.60;99.90
71142;DHT22;58808;59.366;17.970;2022-08-21T08:08:22;18.60;99.90
71142;DHT22;58808;59.366;17.970;2022-08-21T08:10:47;18.70;99.90
71142;DHT22;58808;59.366;17.970;2022-08-21T08:13:14;18.80;99.90
71142;DHT22;58808;59.366;17.970;2022-08-21T08:15:40;18.90;99.90
71142;DHT22;58808;59.366;17.970;2022-08-21T08:18:06;19.00;99.90
71142;DHT22;58808;59.366;17.970;2022-08-21T08:20:34;19.00;99.90
71142;DHT22;58808;59.366;17.970;2022-08-21T08:23:00;19.20;99.90
71142;DHT22;58808;59.366;17.970;2022-08-21T08:25:26;19.50;99.90
71142;DHT22;58808;59.366;17.970;2022-08-21T08:27:52;19.60;99.90
71142;DHT22;58808;59.366;17.970;2022-08-21T08:30:23;19.70;99.90
71142;DHT22;58808;59.366;17.970;2022-08-21T08:32:49;19.50;99.90
71142;DHT22;58808;59.366;17.970;2022-08-21T08:35:15;19.40;99.90
71142;DHT22;58808;59.366;17.970;2022-08-21T08:37:42;19.30;99.90
71142;DHT22;58808;59.366;17.970;2022-08-21T08:40:18;19.40;99.90
71142;DHT22;58808;59.366;17.970;2022-08-21T08:42:46;19.40;99.90
71142;DHT22;58808;59.366;17.970;2022-08-21T08:45:16;19.60;99.90
71142;DHT22;58808;59.366;17.970;2022-08-21T08:47:45;19.90;99.90
71142;DHT22;58808;59.366;17.970;2022-08-21T08:50:24;20.10;99.90
71142;DHT22;58808;59.366;17.970;2022-08-21T08:52:58;20.50;99.90
71142;DHT22;58808;59.366;17.970;2022-08-21T08:55:30;20.70;99.90
71142;DHT22;58808;59.366;17.970;2022-08-21T08:57:58;20.70;99.90
71142;DHT22;58808;59.366;17.970;2022-08-21T09:00:23;20.90;99.90
71142;DHT22;58808;59.366;17.970;2022-08-21T09:02:53;20.90;99.90
71142;DHT22;58808;59.366;17.970;2022-08-21T09:05:26;20.80;99.90
71142;DHT22;58808;59.366;17.970;2022-08-21T09:10:45;20.90;99.90
71142;DHT22;58808;59.366;17.970;2022-08-21T09:13:37;21.10;99.90
71142;DHT22;58808;59.366;17.970;2022-08-21T09:16:22;21.00;99.90
71142;DHT22;58808;59.366;17.970;2022-08-21T09:24:32;20.50;99.90
71142;DHT22;58808;59.366;17.970;2022-08-21T09:27:13;20.70;99.90
71142;DHT22;58808;59.366;17.970;2022-08-21T09:29:42;20.70;99.90
71142;DHT22;58808;59.366;17.970;2022-08-21T09:32:20;20.70;99.90
71142;DHT22;58808;59.366;17.970;2022-08-21T09:35:16;20.70;99.90
71142;DHT22;58808;59.366;17.970;2022-08-21T09:37:50;20.70;99.90
71142;DHT22;58808;59.366;17.970;2022-08-21T09:45:35;20.70;99.90
71142;DHT22;58808;59.366;17.970;2022-08-21T09:48:18;20.60;99.90
71142;DHT22;58808;59.366;17.970;2022-08-21T09:50:44;20.70;99.90
71142;DHT22;58808;59.366;17.970;2022-08-21T09:53:25;20.70;99.90
71142;DHT22;58808;59.366;17.970;2022-08-21T09:58:45;20.80;99.90
71142;DHT22;58808;59.366;17.970;2022-08-21T10:01:18;20.70;99.90
71142;DHT22;58808;59.366;17.970;2022-08-21T10:03:44;20.60;99.90
71142;DHT22;58808;59.366;17.970;2022-08-21T10:06:22;20.50;99.90
71142;DHT22;58808;59.366;17.970;2022-08-21T10:08:48;20.30;99.90
71142;DHT22;58808;59.366;17.970;2022-08-21T10:11:15;20.20;99.90
71142;DHT22;58808;59.366;17.970;2022-08-21T10:24:52;20.60;99.90
71142;DHT22;58808;59.366;17.970;2022-08-21T10:28:00;20.60;99.90
71142;DHT22;58808;59.366;17.970;2022-08-21T10:30:42;20.50;99.90
71142;DHT22;58808;59.366;17.970;2022-08-21T10:37:01;20.30;99.90
71142;DHT22;58808;59.366;17.970;2022-08-21T10:39:24;20.40;99.90
71142;DHT22;58808;59.366;17.970;2022-08-21T10:44:56;20.60;99.90
71142;DHT22;58808;59.366;17.970;2022-08-21T10:47:42;20.70;99.50
71142;DHT22;58808;59.366;17.970;2022-08-21T10:55:57;20.70;99.90
71142;DHT22;58808;59.366;17.970;2022-08-21T10:58:37;20.70;99.90
71142;DHT22;58808;59.366;17.970;2022-08-21T11:01:41;20.70;99.90
71142;DHT22;58808;59.366;17.970;2022-08-21T11:04:19;20.70;96.10
71142;DHT22;58808;59.366;17.970;2022-08-21T11:06:50;20.80;99.10
71142;DHT22;58808;59.366;17.970;2022-08-21T11:09:22;20.90;99.90
71142;DHT22;58808;59.366;17.970;2022-08-21T11:11:54;20.90;99.90
71142;DHT22;58808;59.366;17.970;2022-08-21T11:14:26;20.90;97.60
71142;DHT22;58808;59.366;17.970;2022-08-21T11:17:05;21.00;99.90
71142;DHT22;58808;59.366;17.970;2022-08-21T11:19:54;20.90;94.80
71142;DHT22;58808;59.366;17.970;2022-08-21T11:22:40;20.80;94.00
71142;DHT22;58808;59.366;17.970;2022-08-21T11:30:12;20.60;97.70
71142;DHT22;58808;59.366;17.970;2022-08-21T11:33:22;20.80;96.60
71142;DHT22;58808;59.366;17.970;2022-08-21T11:35:46;21.10;94.60
71142;DHT22;58808;59.366;17.970;2022-08-21T11:38:39;21.20;96.00
71142;DHT22;58808;59.366;17.970;2022-08-21T11:41:24;21.00;79.20
71142;DHT22;58808;59.366;17.970;2022-08-21T11:46:49;20.80;82.00
71142;DHT22;58808;59.366;17.970;2022-08-21T11:52:10;20.90;90.90
71142;DHT22;58808;59.366;17.970;2022-08-21T12:00:47;21.30;90.40
71142;DHT22;58808;59.366;17.970;2022-08-21T12:03:14;21.40;93.80
71142;DHT22;58808;59.366;17.970;2022-08-21T12:05:44;21.60;97.20
71142;DHT22;58808;59.366;17.970;2022-08-21T12:08:36;21.80;95.40
71142;DHT22;58808;59.366;17.970;2022-08-21T12:13:38;21.90;95.40
71142;DHT22;58808;59.366;17.970;2022-08-21T12:16:15;21.90;93.40
71142;DHT22;58808;59.366;17.970;2022-08-21T12:21:53;22.10;94.60
71142;DHT22;58808;59.366;17.970;2022-08-21T12:24:35;22.30;60.10
71142;DHT22;58808;59.366;17.970;2022-08-21T12:29:55;23.20;57.70
71142;DHT22;58808;59.366;17.970;2022-08-21T12:32:54;23.80;54.30
71142;DHT22;58808;59.366;17.970;2022-08-21T12:35:25;24.20;50.90
71142;DHT22;58808;59.366;17.970;2022-08-21T12:38:06;24.10;46.80
71142;DHT22;58808;59.366;17.970;2022-08-21T12:40:40;23.70;44.50
71142;DHT22;58808;59.366;17.970;2022-08-21T12:43:11;23.50;47.80
71142;DHT22;58808;59.366;17.970;2022-08-21T12:45:47;23.40;46.60
71142;DHT22;58808;59.366;17.970;2022-08-21T12:48:25;23.50;48.80
71142;DHT22;58808;59.366;17.970;2022-08-21T12:50:54;23.60;49.30
71142;DHT22;58808;59.366;17.970;2022-08-21T12:55:53;23.90;49.10
71142;DHT22;58808;59.366;17.970;2022-08-21T12:58:30;23.90;48.80
71142;DHT22;58808;59.366;17.970;2022-08-21T13:01:03;23.90;48.60
71142;DHT22;58808;59.366;17.970;2022-08-21T13:03:36;24.20;47.60
71142;DHT22;58808;59.366;17.970;2022-08-21T13:06:06;24.50;48.70
71142;DHT22;58808;59.366;17.970;2022-08-21T13:08:35;24.90;47.60
71142;DHT22;58808;59.366;17.970;2022-08-21T13:11:04;25.20;46.00
71142;DHT22;58808;59.366;17.970;2022-08-21T13:13:30;25.40;43.30
71142;DHT22;58808;59.366;17.970;2022-08-21T13:16:03;25.10;42.50
71142;DHT22;58808;59.366;17.970;2022-08-21T13:18:32;25.00;44.60
71142;DHT22;58808;59.366;17.970;2022-08-21T13:21:14;25.20;47.50
71142;DHT22;58808;59.366;17.970;2022-08-21T13:23:40;25.50;44.90
71142;DHT22;58808;59.366;17.970;2022-08-21T13:26:19;25.60;44.40
71142;DHT22;58808;59.366;17.970;2022-08-21T13:28:51;25.60;45.50
71142;DHT22;58808;59.366;17.970;2022-08-21T13:31:21;25.50;42.20
71142;DHT22;58808;59.366;17.970;2022-08-21T13:33:49;25.10;43.80
71142;DHT22;58808;59.366;17.970;2022-08-21T13:36:26;24.80;44.70
71142;DHT22;58808;59.366;17.970;2022-08-21T13:38:54;25.00;45.30
71142;DHT22;58808;59.366;17.970;2022-08-21T13:41:24;25.30;43.20
71142;DHT22;58808;59.366;17.970;2022-08-21T13:44:04;25.30;42.00
71142;DHT22;58808;59.366;17.970;2022-08-21T13:46:34;25.40;44.30
71142;DHT22;58808;59.366;17.970;2022-08-21T13:49:03;25.70;43.70
71142;DHT22;58808;59.366;17.970;2022-08-21T13:51:30;25.70;41.40
71142;DHT22;58808;59.366;17.970;2022-08-21T13:53:57;25.60;40.60
71142;DHT22;58808;59.366;17.970;2022-08-21T13:56:41;25.20;41.20
71142;DHT22;58808;59.366;17.970;2022-08-21T13:59:07;25.20;45.30
71142;DHT22;58808;59.366;17.970;2022-08-21T14:02:18;25.30;41.60
71142;DHT22;58808;59.366;17.970;2022-08-21T14:04:36;25.40;41.00
71142;DHT22;58808;59.366;17.970;2022-08-21T14:07:18;25.60;41.40
71142;DHT22;58808;59.366;17.970;2022-08-21T14:09:45;25.70;40.70
71142;DHT22;58808;59.366;17.970;2022-08-21T14:12:15;25.70;40.10
71142;DHT22;58808;59.366;17.970;2022-08-21T14:14:41;26.00;40.40
71142;DHT22;58808;59.366;17.970;2022-08-21T14:17:12;25.90;39.20
71142;DHT22;58808;59.366;17.970;2022-08-21T14:19:44;25.60;39.10
71142;DHT22;58808;59.366;17.970;2022-08-21T14:25:05;24.90;41.10
71142;DHT22;58808;59.366;17.970;2022-08-21T14:27:33;24.80;43.00
71142;DHT22;58808;59.366;17.970;2022-08-21T14:30:03;25.20;42.60
71142;DHT22;58808;59.366;17.970;2022-08-21T14:32:37;25.50;41.70
71142;DHT22;58808;59.366;17.970;2022-08-21T14:35:03;25.30;41.20
71142;DHT22;58808;59.366;17.970;2022-08-21T14:37:29;25.40;43.30
71142;DHT22;58808;59.366;17.970;2022-08-21T14:39:54;25.70;40.50
71142;DHT22;58808;59.366;17.970;2022-08-21T14:42:20;25.40;41.40
71142;DHT22;58808;59.366;17.970;2022-08-21T14:44:46;25.30;42.00
71142;DHT22;58808;59.366;17.970;2022-08-21T14:47:12;25.20;41.20
71142;DHT22;58808;59.366;17.970;2022-08-21T14:49:37;25.00;41.20
71142;DHT22;58808;59.366;17.970;2022-08-21T14:52:04;24.90;40.40
71142;DHT22;58808;59.366;17.970;2022-08-21T14:54:31;24.90;41.60
71142;DHT22;58808;59.366;17.970;2022-08-21T14:57:05;25.00;41.50
71142;DHT22;58808;59.366;17.970;2022-08-21T14:59:31;25.30;40.70
71142;DHT22;58808;59.366;17.970;2022-08-21T15:01:58;25.50;37.90
71142;DHT22;58808;59.366;17.970;2022-08-21T15:04:24;25.40;38.20
71142;DHT22;58808;59.366;17.970;2022-08-21T15:06:49;25.40;38.60
71142;DHT22;58808;59.366;17.970;2022-08-21T15:09:15;25.50;38.60
71142;DHT22;58808;59.366;17.970;2022-08-21T15:11:41;25.50;40.10
71142;DHT22;58808;59.366;17.970;2022-08-21T15:14:08;25.70;39.00
71142;DHT22;58808;59.366;17.970;2022-08-21T15:16:36;25.60;39.30
71142;DHT22;58808;59.366;17.970;2022-08-21T15:19:02;25.70;39.40
71142;DHT22;58808;59.366;17.970;2022-08-21T15:21:27;25.90;39.00
71142;DHT22;58808;59.366;17.970;2022-08-21T15:23:53;25.80;37.10
71142;DHT22;58808;59.366;17.970;2022-08-21T15:26:20;25.50;37.60
71142;DHT22;58808;59.366;17.970;2022-08-21T15:28:47;25.20;38.00
71142;DHT22;58808;59.366;17.970;2022-08-21T15:31:12;25.10;38.40
71142;DHT22;58808;59.366;17.970;2022-08-21T15:33:38;24.90;39.90
71142;DHT22;58808;59.366;17.970;2022-08-21T15:36:04;24.90;38.10
71142;DHT22;58808;59.366;17.970;2022-08-21T15:38:29;24.70;38.70
71142;DHT22;58808;59.366;17.970;2022-08-21T15:40:55;24.50;38.00
71142;DHT22;58808;59.366;17.970;2022-08-21T15:43:29;24.30;39.00
71142;DHT22;58808;59.366;17.970;2022-08-21T15:45:57;24.20;39.40
71142;DHT22;58808;59.366;17.970;2022-08-21T15:48:23;24.20;39.80
71142;DHT22;58808;59.366;17.970;2022-08-21T15:50:48;24.10;39.90
71142;DHT22;58808;59.366;17.970;2022-08-21T15:53:14;23.90;40.10
71142;DHT22;58808;59.366;17.970;2022-08-21T15:55:40;23.70;40.70
71142;DHT22;58808;59.366;17.970;2022-08-21T15:58:05;23.50;41.60
71142;DHT22;58808;59.366;17.970;2022-08-21T16:00:34;23.60;41.90
71142;DHT22;58808;59.366;17.970;2022-08-21T16:03:03;23.70;42.40
71142;DHT22;58808;59.366;17.970;2022-08-21T16:05:29;23.70;42.00
71142;DHT22;58808;59.366;17.970;2022-08-21T16:07:55;23.70;42.10
71142;DHT22;58808;59.366;17.970;2022-08-21T16:10:22;23.60;41.60
71142;DHT22;58808;59.366;17.970;2022-08-21T16:12:55;23.50;43.00
71142;DHT22;58808;59.366;17.970;2022-08-21T16:15:21;23.40;43.00
71142;DHT22;58808;59.366;17.970;2022-08-21T16:17:49;23.20;43.10
71142;DHT22;58808;59.366;17.970;2022-08-21T16:20:20;23.20;44.50
71142;DHT22;58808;59.366;17.970;2022-08-21T16:22:51;23.20;44.90
71142;DHT22;58808;59.366;17.970;2022-08-21T16:25:17;23.20;44.10
71142;DHT22;58808;59.366;17.970;2022-08-21T16:27:46;23.10;45.10
71142;DHT22;58808;59.366;17.970;2022-08-21T16:30:23;23.00;44.40
71142;DHT22;58808;59.366;17.970;2022-08-21T16:32:49;23.00;45.20
71142;DHT22;58808;59.366;17.970;2022-08-21T16:35:17;22.80;45.90
71142;DHT22;58808;59.366;17.970;2022-08-21T16:37:44;22.80;46.10